createdAt,value
2018-11-05T00:01:10.916Z,10.50
2018-11-05T00:05:50.752Z,10.50
2018-11-05T00:10:32.065Z,10.50
2018-11-05T00:15:12.012Z,10.50
2018-11-05T00:19:52.955Z,10.50
2018-11-05T00:24:33.470Z,10.50
2018-11-05T00:29:15.005Z,10.50
2018-11-05T00:33:54.862Z,10.60
2018-11-05T00:38:35.642Z,10.60
2018-11-05T00:43:15.577Z,10.60
2018-11-05T00:47:56.956Z,10.60
2018-11-05T00:52:37.312Z,10.60
2018-11-05T00:57:18.674Z,10.60
2018-11-05T01:01:59.181Z,10.60
2018-11-05T01:06:40.683Z,10.60
2018-11-05T01:11:23.287Z,10.70
2018-11-05T01:16:04.422Z,10.60
2018-11-05T01:20:44.963Z,10.60
2018-11-05T01:25:25.386Z,10.60
2018-11-05T01:30:07.769Z,10.70
2018-11-05T01:34:48.312Z,10.70
2018-11-05T01:39:29.783Z,10.70
2018-11-05T01:44:10.385Z,10.70
2018-11-05T01:48:50.348Z,10.60
2018-11-05T01:53:33.085Z,10.60
2018-11-05T01:58:13.941Z,10.60
2018-11-05T02:02:55.485Z,10.60
2018-11-05T02:07:35.863Z,10.60
2018-11-05T02:12:16.405Z,10.60
2018-11-05T02:16:58.874Z,10.60
2018-11-05T02:21:38.916Z,10.60
2018-11-05T02:26:19.513Z,10.60
2018-11-05T02:31:00.032Z,10.60
2018-11-05T02:35:41.119Z,10.60
2018-11-05T02:40:23.747Z,10.60
2018-11-05T02:45:03.835Z,10.60
2018-11-05T02:49:43.533Z,10.60
2018-11-05T02:54:25.206Z,10.60
2018-11-05T02:59:05.400Z,10.60
2018-11-05T03:03:46.211Z,10.60
2018-11-05T03:08:26.476Z,10.60
2018-11-05T03:13:06.620Z,10.60
2018-11-05T03:17:46.580Z,10.60
2018-11-05T03:22:27.932Z,10.60
2018-11-05T03:27:09.629Z,10.60
2018-11-05T03:31:49.841Z,10.60
2018-11-05T03:36:31.519Z,10.60
2018-11-05T03:41:11.741Z,10.60
2018-11-05T03:45:51.797Z,10.60
2018-11-05T03:50:32.482Z,10.60
2018-11-05T03:55:12.907Z,10.60
2018-11-05T03:59:53.357Z,10.50
2018-11-05T04:04:34.336Z,10.60
2018-11-05T04:09:16.312Z,10.60
2018-11-05T04:13:56.806Z,10.60
2018-11-05T04:18:36.821Z,10.60
2018-11-05T04:23:16.485Z,10.60
2018-11-05T04:27:56.486Z,10.60
2018-11-05T04:32:36.605Z,10.60
2018-11-05T04:37:16.568Z,10.50
2018-11-05T04:41:56.228Z,10.50
2018-11-05T04:46:36.251Z,10.50
2018-11-05T04:51:16.353Z,10.50
2018-11-05T04:55:56.363Z,10.50
2018-11-05T05:00:36.197Z,10.60
2018-11-05T05:05:17.139Z,10.60
2018-11-05T05:09:57.874Z,10.50
2018-11-05T05:14:37.848Z,10.50
2018-11-05T05:19:17.864Z,10.50
2018-11-05T05:23:58.263Z,10.50
2018-11-05T05:28:38.401Z,10.50
2018-11-05T05:33:18.222Z,10.50
2018-11-05T05:37:58.332Z,10.50
2018-11-05T05:42:39.192Z,10.50
2018-11-05T05:47:20.606Z,10.50
2018-11-05T05:52:02.143Z,10.50
2018-11-05T05:56:42.022Z,10.50
2018-11-05T06:01:22.181Z,10.50
2018-11-05T06:06:02.563Z,10.50
2018-11-05T06:10:42.302Z,10.50
2018-11-05T06:15:22.842Z,10.50
2018-11-05T06:20:02.785Z,10.50
2018-11-05T06:24:42.604Z,10.50
2018-11-05T06:29:23.241Z,10.50
2018-11-05T06:34:03.257Z,10.50
2018-11-05T06:38:45.329Z,10.50
2018-11-05T06:43:26.292Z,10.50
2018-11-05T06:48:06.041Z,10.50
2018-11-05T06:52:46.380Z,10.50
2018-11-05T06:57:28.880Z,10.60
2018-11-05T07:02:08.774Z,10.60
2018-11-05T07:06:50.804Z,10.60
2018-11-05T07:11:34.811Z,10.60
2018-11-05T07:16:15.589Z,10.60
2018-11-05T07:20:56.355Z,10.70
2018-11-05T07:25:36.316Z,10.80
2018-11-05T07:30:21.772Z,10.80
2018-11-05T07:35:01.517Z,10.80
2018-11-05T07:39:41.610Z,10.90
2018-11-05T07:44:22.601Z,10.90
2018-11-05T07:49:04.756Z,10.90
2018-11-05T07:53:44.678Z,10.90
2018-11-05T07:58:26.093Z,10.90
2018-11-05T08:03:07.241Z,11.00
2018-11-05T08:07:49.071Z,11.10
2018-11-05T08:12:29.156Z,11.10
2018-11-05T08:17:09.466Z,11.20
2018-11-05T08:21:50.104Z,11.20
2018-11-05T08:26:30.841Z,11.20
2018-11-05T08:31:14.370Z,11.10
2018-11-05T08:35:54.402Z,11.10
2018-11-05T08:40:34.380Z,11.10
2018-11-05T08:45:16.808Z,11.10
2018-11-05T08:49:56.565Z,11.20
2018-11-05T08:54:38.906Z,11.20
2018-11-05T08:59:18.636Z,11.30
2018-11-05T09:03:58.613Z,11.30
2018-11-05T09:08:38.674Z,11.20
2018-11-05T09:13:18.417Z,11.40
2018-11-05T09:17:58.800Z,11.50
2018-11-05T09:22:39.696Z,11.60
2018-11-05T09:27:19.588Z,11.70
2018-11-05T09:32:00.354Z,11.70
2018-11-05T09:36:40.980Z,11.90
2018-11-05T09:41:20.985Z,12.00
2018-11-05T09:46:01.525Z,12.10
2018-11-05T09:50:41.379Z,12.20
2018-11-05T09:55:21.598Z,12.40
2018-11-05T10:00:03.290Z,12.40
2018-11-05T10:04:43.411Z,12.50
2018-11-05T10:09:23.248Z,12.80
2018-11-05T10:14:03.182Z,13.10
2018-11-05T10:18:43.520Z,13.20
2018-11-05T10:23:23.972Z,13.10
2018-11-05T10:28:05.708Z,13.20
2018-11-05T10:32:45.863Z,13.50
2018-11-05T10:37:25.877Z,13.80
2018-11-05T10:42:06.414Z,14.20
2018-11-05T10:46:47.012Z,14.70
2018-11-05T10:51:27.212Z,14.80
2018-11-05T10:56:07.313Z,14.70
2018-11-05T11:00:52.554Z,14.50
2018-11-05T11:05:33.212Z,14.40
2018-11-05T11:10:14.609Z,14.30
2018-11-05T11:14:55.136Z,14.30
2018-11-05T11:19:35.830Z,14.40
2018-11-05T11:24:16.144Z,14.40
2018-11-05T11:28:56.332Z,14.50
2018-11-05T11:33:38.469Z,14.50
2018-11-05T11:38:19.123Z,14.90
2018-11-05T11:43:00.443Z,16.00
2018-11-05T11:47:40.578Z,17.30
2018-11-05T11:52:21.106Z,18.40
2018-11-05T11:57:01.393Z,18.30
2018-11-05T12:01:46.500Z,17.40
2018-11-05T12:06:26.780Z,16.30
2018-11-05T12:11:07.100Z,15.50
2018-11-05T12:15:47.791Z,15.10
2018-11-05T12:20:27.901Z,14.70
2018-11-05T12:25:08.035Z,14.50
2018-11-05T12:29:47.956Z,14.30
2018-11-05T12:34:28.300Z,14.20
2018-11-05T12:39:10.215Z,14.20
2018-11-05T12:43:50.253Z,14.20
2018-11-05T12:48:30.365Z,14.10
2018-11-05T12:53:10.712Z,14.00
2018-11-05T12:57:50.404Z,13.90
2018-11-05T13:02:30.317Z,13.80
2018-11-05T13:07:11.547Z,13.80
2018-11-05T13:11:51.269Z,13.80
2018-11-05T13:16:32.011Z,13.80
2018-11-05T13:21:12.382Z,13.90
2018-11-05T13:25:52.904Z,14.00
2018-11-05T13:30:32.844Z,14.20
2018-11-05T13:35:15.572Z,14.40
2018-11-05T13:39:56.296Z,14.60
2018-11-05T13:44:36.318Z,14.80
2018-11-05T13:49:17.128Z,14.90
2018-11-05T13:53:56.888Z,15.00
2018-11-05T13:58:36.893Z,15.10
2018-11-05T14:03:16.878Z,15.10
2018-11-05T14:07:56.733Z,15.20
2018-11-05T14:12:38.413Z,15.30
2018-11-05T14:17:18.539Z,15.30
2018-11-05T14:21:58.484Z,15.40
2018-11-05T14:26:38.821Z,15.40
2018-11-05T14:31:18.721Z,15.30
2018-11-05T14:35:59.080Z,15.10
2018-11-05T14:40:38.914Z,14.90
2018-11-05T14:45:20.711Z,14.70
2018-11-05T14:50:00.569Z,14.50
2018-11-05T14:54:40.641Z,14.40
2018-11-05T14:59:21.044Z,14.20
2018-11-05T15:04:01.819Z,14.00
2018-11-05T15:08:41.977Z,13.90
2018-11-05T15:13:21.961Z,13.80
2018-11-05T15:18:02.836Z,13.70
2018-11-05T15:22:42.885Z,13.60
2018-11-05T15:27:22.652Z,13.40
2018-11-05T15:32:03.553Z,13.30
2018-11-05T15:36:43.409Z,13.20
2018-11-05T15:41:24.542Z,13.00
2018-11-05T15:46:06.448Z,12.90
2018-11-05T15:50:46.238Z,12.70
2018-11-05T15:55:27.681Z,12.60
2018-11-05T16:00:15.465Z,12.40
2018-11-05T16:04:56.200Z,12.30
2018-11-05T16:09:37.236Z,12.10
2018-11-05T16:14:17.462Z,11.90
2018-11-05T16:18:57.744Z,11.70
2018-11-05T16:23:37.648Z,11.50
2018-11-05T16:28:18.486Z,11.40
2018-11-05T16:32:58.257Z,11.20
2018-11-05T16:37:38.641Z,11.10
2018-11-05T16:42:18.789Z,11.00
2018-11-05T16:46:58.708Z,10.90
2018-11-05T16:51:38.404Z,10.80
2018-11-05T16:56:18.498Z,10.60
2018-11-05T17:00:58.460Z,10.50
2018-11-05T17:05:38.524Z,10.30
2018-11-05T17:10:18.583Z,10.20
2018-11-05T17:14:59.429Z,10.10
2018-11-05T17:19:39.677Z,10.00
2018-11-05T17:24:20.113Z,10.00
2018-11-05T17:29:00.079Z,9.80
2018-11-05T17:33:40.635Z,9.70
2018-11-05T17:38:21.168Z,9.60
2018-11-05T17:43:01.220Z,9.40
2018-11-05T17:47:41.220Z,9.30
2018-11-05T17:52:21.812Z,9.20
2018-11-05T17:57:01.591Z,9.30
2018-11-05T18:01:42.269Z,9.20
2018-11-05T18:06:22.505Z,9.00
2018-11-05T18:11:02.520Z,8.90
2018-11-05T18:15:43.555Z,8.70
2018-11-05T18:20:23.940Z,8.60
2018-11-05T18:25:03.848Z,8.50
2018-11-05T18:29:44.149Z,8.50
2018-11-05T18:34:24.013Z,8.40
2018-11-05T18:39:04.025Z,8.40
2018-11-05T18:43:44.417Z,8.30
2018-11-05T18:48:24.941Z,8.30
2018-11-05T18:53:05.710Z,8.10
2018-11-05T18:57:46.345Z,8.00
2018-11-05T19:02:29.357Z,7.90
2018-11-05T19:07:09.460Z,7.80
2018-11-05T19:11:49.245Z,7.70
2018-11-05T19:16:30.198Z,7.60
2018-11-05T19:21:09.968Z,7.60
2018-11-05T19:25:49.893Z,7.60
2018-11-05T19:30:30.853Z,7.50
2018-11-05T19:35:11.405Z,7.40
2018-11-05T19:39:51.141Z,7.20
2018-11-05T19:44:30.949Z,7.20
2018-11-05T19:49:10.678Z,7.10
2018-11-05T19:53:50.473Z,7.10
2018-11-05T19:58:30.442Z,7.00
2018-11-05T20:03:11.264Z,6.90
2018-11-05T20:07:51.844Z,6.80
2018-11-05T20:12:32.741Z,6.80
2018-11-05T20:17:12.617Z,6.80
2018-11-05T20:21:53.684Z,6.70
2018-11-05T20:26:33.728Z,6.70
2018-11-05T20:31:14.371Z,6.60
2018-11-05T20:35:54.129Z,6.60
2018-11-05T20:40:34.864Z,6.60
2018-11-05T20:45:17.462Z,6.40
2018-11-05T20:49:58.190Z,6.40
2018-11-05T20:54:40.843Z,6.40
2018-11-05T20:59:23.251Z,6.30
2018-11-05T21:04:03.375Z,6.20
2018-11-05T21:08:45.947Z,6.20
2018-11-05T21:13:25.872Z,6.20
2018-11-05T21:18:06.437Z,6.10
2018-11-05T21:22:48.083Z,6.00
2018-11-05T21:27:27.986Z,5.90
2018-11-05T21:32:08.532Z,5.80
2018-11-05T21:36:56.220Z,5.80
2018-11-05T21:41:36.088Z,5.80
2018-11-05T21:46:16.621Z,5.70
2018-11-05T21:50:57.328Z,5.60
2018-11-05T21:55:37.444Z,5.60
2018-11-05T22:00:21.389Z,5.60
2018-11-05T22:05:01.777Z,5.50
2018-11-05T22:09:42.352Z,5.50
2018-11-05T22:14:22.108Z,5.40
2018-11-05T22:19:03.803Z,5.50
2018-11-05T22:23:44.329Z,5.40
2018-11-05T22:28:26.153Z,5.30
2018-11-05T22:33:06.586Z,5.20
2018-11-05T22:37:46.540Z,5.10
2018-11-05T22:42:33.453Z,5.10
2018-11-05T22:47:13.484Z,5.00
2018-11-05T22:51:53.969Z,5.00
2018-11-05T22:56:34.696Z,4.90
2018-11-05T23:01:19.989Z,4.90
2018-11-05T23:06:00.271Z,4.90
2018-11-05T23:10:40.603Z,4.90
2018-11-05T23:15:21.036Z,4.80
2018-11-05T23:20:01.944Z,4.80
2018-11-05T23:24:41.992Z,4.80
2018-11-05T23:29:22.233Z,4.90
2018-11-05T23:34:02.969Z,4.90
2018-11-05T23:38:44.749Z,4.80
2018-11-05T23:43:25.803Z,4.80
2018-11-05T23:48:06.593Z,4.80
2018-11-05T23:52:48.249Z,4.70
2018-11-05T23:57:29.703Z,4.60
